Time;durP1;ratioP1;P1;durP2;ratioP2;P2;SDS_P1;SDS_P2;PMS_P1;PMS_P2;Temp;Humidity;BMP_temperature;BMP_pressure;BME280_temperature;BME280_humidity;BME280_pressure;Samples;Min_cycle;Max_cycle;Signal;HPM_P1;HPM_P2
2021/06/22 00:01:18;;;;;;;4.95;2.95;;;;;;;18.02;66.32;99636.47;4997741;28;20038;-63
2021/06/22 00:03:43;;;;;;;3.33;2.30;;;;;;;18.01;66.45;99646.13;4997865;28;20089;-65
2021/06/22 00:06:09;;;;;;;3.10;2.38;;;;;;;18.01;66.32;99647.84;4997843;28;20034;-62
2021/06/22 00:08:34;;;;;;;2.97;2.40;;;;;;;18.00;66.31;99639.13;4997981;28;20077;-63
2021/06/22 00:11:02;;;;;;;5.45;2.42;;;;;;;18.00;66.32;99638.25;4997747;28;20050;-63
2021/06/22 00:13:30;;;;;;;5.13;2.65;;;;;;;17.98;66.29;99629.59;4998152;28;20088;-63
2021/06/22 00:15:55;;;;;;;2.65;2.28;;;;;;;17.98;66.22;99635.69;4996685;28;20379;-63
2021/06/22 00:18:21;;;;;;;3.25;2.30;;;;;;;17.98;66.08;99635.69;4997587;28;20038;-64
2021/06/22 00:20:47;;;;;;;3.42;2.55;;;;;;;17.96;66.56;99627.84;5012692;28;20041;-65
2021/06/22 00:23:12;;;;;;;3.88;2.50;;;;;;;17.94;66.13;99627.00;4997666;28;20038;-63
2021/06/22 00:25:37;;;;;;;4.63;2.60;;;;;;;17.94;66.33;99628.75;4997511;28;20449;-64
2021/06/22 00:28:03;;;;;;;4.00;2.85;;;;;;;17.94;66.25;99628.75;4997751;28;20129;-63
2021/06/22 00:30:28;;;;;;;4.03;2.55;;;;;;;17.93;66.31;99629.63;4997467;28;20038;-63
2021/06/22 00:32:54;;;;;;;2.83;2.08;;;;;;;17.92;66.34;99626.16;4997234;28;20038;-63
2021/06/22 00:35:20;;;;;;;4.65;3.42;;;;;;;17.91;66.25;99627.06;5012444;28;20093;-63
2021/06/22 00:37:45;;;;;;;3.50;2.90;;;;;;;17.91;66.25;99628.78;4997477;28;20085;-62
2021/06/22 00:40:13;;;;;;;4.85;2.72;;;;;;;17.90;66.32;99627.94;5012489;28;20045;-62
2021/06/22 00:42:41;;;;;;;6.43;3.70;;;;;;;17.89;66.35;99631.47;4996880;28;20045;-63
2021/06/22 00:45:08;;;;;;;6.05;3.65;;;;;;;17.88;66.62;99637.59;5012377;28;20031;-64
2021/06/22 00:47:34;;;;;;;5.18;4.07;;;;;;;17.89;66.46;99651.59;4997460;28;20043;-62
2021/06/22 00:49:59;;;;;;;5.20;4.15;;;;;;;17.89;66.15;99651.59;4995807;28;20045;-63
2021/06/22 00:52:27;;;;;;;6.32;4.55;;;;;;;17.88;66.31;99657.72;4996847;28;20121;-63
2021/06/22 00:54:54;;;;;;;5.65;3.88;;;;;;;17.87;66.09;99656.00;4996876;28;20030;-63
2021/06/22 00:57:20;;;;;;;5.15;4.05;;;;;;;17.87;66.22;99654.22;4996657;28;20406;-63
2021/06/22 00:59:47;;;;;;;5.82;4.30;;;;;;;17.84;66.08;99643.78;4996053;28;20049;-64
2021/06/22 01:02:15;;;;;;;7.68;4.88;;;;;;;17.83;66.07;99646.44;4995341;28;20482;-64
2021/06/22 01:04:41;;;;;;;7.63;4.97;;;;;;;17.84;66.20;99648.19;4996400;28;20030;-64
2021/06/22 01:07:06;;;;;;;8.13;5.07;;;;;;;17.81;66.31;99643.88;4996767;28;20045;-63
2021/06/22 01:09:32;;;;;;;7.18;5.10;;;;;;;17.81;66.21;99641.25;4995463;28;20038;-63
2021/06/22 01:12:02;;;;;;;6.18;5.32;;;;;;;17.80;66.25;99643.00;4995730;28;20042;-64
2021/06/22 01:14:39;;;;;;;7.30;4.80;;;;;;;17.80;66.18;99639.53;4997070;28;20504;-63
2021/06/22 01:17:05;;;;;;;8.70;5.80;;;;;;;17.79;66.24;99630.78;4996665;28;20050;-63
2021/06/22 01:19:31;;;;;;;8.55;5.85;;;;;;;17.78;66.12;99636.91;4996458;28;20038;-63
2021/06/22 01:21:56;;;;;;;8.70;5.70;;;;;;;17.77;66.18;99632.56;4996516;28;20042;-63
2021/06/22 01:24:22;;;;;;;9.32;6.63;;;;;;;17.77;66.34;99623.84;4996330;28;20434;-63
2021/06/22 01:26:49;;;;;;;8.90;6.25;;;;;;;17.75;66.22;99618.63;4995817;28;20069;-63
2021/06/22 01:29:15;;;;;;;8.52;6.43;;;;;;;17.76;66.31;99617.72;4996045;28;20041;-63
2021/06/22 01:31:44;;;;;;;10.20;5.97;;;;;;;17.73;66.22;99625.69;4996104;28;20030;-63
2021/06/22 01:34:13;;;;;;;8.50;6.97;;;;;;;17.75;66.05;99617.78;4995723;28;20042;-63
2021/06/22 01:36:45;;;;;;;7.97;5.43;;;;;;;17.74;66.07;99616.94;5011400;28;20452;-63
2021/06/22 01:39:14;;;;;;;17.00;5.82;;;;;;;17.72;66.13;99610.84;4995781;28;20039;-63
2021/06/22 01:41:40;;;;;;;9.18;6.93;;;;;;;17.73;66.03;99611.69;4996797;28;20046;-63
2021/06/22 01:44:06;;;;;;;9.15;6.93;;;;;;;17.71;66.32;99613.47;5011240;28;20042;-63
2021/06/22 01:46:32;;;;;;;9.48;6.90;;;;;;;17.70;66.03;99620.50;5011432;28;20197;-63
2021/06/22 01:48:58;;;;;;;9.95;7.32;;;;;;;17.69;66.09;99608.28;4994727;28;20035;-64
2021/06/22 01:51:26;;;;;;;12.40;8.43;;;;;;;17.69;66.49;99624.00;4995959;28;20042;-62
2021/06/22 01:53:57;;;;;;;9.75;7.30;;;;;;;17.67;66.06;99623.16;4995827;28;20497;-63
2021/06/22 01:56:25;;;;;;;10.57;8.30;;;;;;;17.69;66.30;99624.00;5010784;28;20513;-63
2021/06/22 01:58:51;;;;;;;13.15;8.35;;;;;;;17.69;66.18;99620.50;4995816;28;20027;-64
2021/06/22 02:01:17;;;;;;;10.95;8.25;;;;;;;17.68;66.34;99621.41;4995793;28;20031;-63
2021/06/22 02:03:42;;;;;;;15.80;9.30;;;;;;;17.67;66.33;99624.94;5010958;28;20038;-63
2021/06/22 02:06:08;;;;;;;12.77;9.70;;;;;;;17.64;66.30;99621.50;4995583;28;20470;-63
2021/06/22 02:08:34;;;;;;;11.93;9.75;;;;;;;17.65;66.17;99622.34;5010796;28;20528;-63
2021/06/22 02:11:05;;;;;;;12.98;10.88;;;;;;;17.65;66.34;99622.34;4995516;28;20406;-63
2021/06/22 02:13:30;;;;;;;14.80;10.43;;;;;;;17.64;66.15;99623.22;4995550;28;20035;-63
2021/06/22 02:15:58;;;;;;;12.57;10.25;;;;;;;17.63;66.05;99624.13;4994063;28;20129;-63
2021/06/22 02:18:27;;;;;;;15.00;10.13;;;;;;;17.62;66.16;99630.25;4995460;28;20034;-63
2021/06/22 02:20:53;;;;;;;13.75;9.63;;;;;;;17.60;66.11;99632.91;4995345;28;20042;-63
2021/06/22 02:23:21;;;;;;;12.95;10.85;;;;;;;17.60;66.23;99632.03;4995048;28;20398;-63
2021/06/22 02:25:47;;;;;;;16.13;11.32;;;;;;;17.60;66.30;99637.28;5010456;28;20395;-64
2021/06/22 02:28:21;;;;;;;15.15;11.13;;;;;;;17.59;65.73;99632.97;4995146;28;20516;-63
2021/06/22 02:30:54;;;;;;;16.02;11.77;;;;;;;17.56;66.07;99633.84;5010524;28;20050;-62
2021/06/22 02:33:20;;;;;;;18.00;11.50;;;;;;;17.56;65.90;99633.00;4994841;28;20057;-63
2021/06/22 02:36:07;;;;;;;14.90;9.95;;;;;;;17.55;66.23;99641.75;4994862;28;20057;-63
2021/06/22 02:38:53;;;;;;;15.82;11.80;;;;;;;17.54;66.21;99647.88;4995283;28;20121;-63
2021/06/22 02:41:37;;;;;;;12.25;10.20;;;;;;;17.54;66.17;99653.13;4994799;28;20093;-62
2021/06/22 02:44:29;;;;;;;13.50;10.15;;;;;;;17.50;66.21;99650.56;4995142;28;20512;-63
2021/06/22 02:47:03;;;;;;;15.52;10.73;;;;;;;17.49;66.08;99669.78;5009864;28;20041;-63
2021/06/22 02:49:51;;;;;;;14.40;10.00;;;;;;;17.49;66.22;99663.69;4994682;28;20612;-63
2021/06/22 02:52:34;;;;;;;13.30;9.13;;;;;;;17.48;66.21;99660.19;4994843;28;20050;-63
2021/06/22 02:55:00;;;;;;;15.27;9.00;;;;;;;17.47;66.00;99657.63;4994532;28;20038;-64
2021/06/22 02:57:25;;;;;;;15.73;9.65;;;;;;;17.46;65.89;99664.59;4994578;28;20050;-62
2021/06/22 02:59:51;;;;;;;14.10;8.90;;;;;;;17.47;66.16;99665.47;5009723;28;20033;-64
2021/06/22 03:02:17;;;;;;;16.55;9.10;;;;;;;17.47;66.16;99670.72;4994388;28;20078;-62
2021/06/22 03:04:42;;;;;;;13.88;9.25;;;;;;;17.46;66.08;99669.00;4993287;28;20042;-63
2021/06/22 03:07:08;;;;;;;12.73;7.95;;;;;;;17.45;66.14;99675.97;4993293;28;20042;-64
2021/06/22 03:09:33;;;;;;;12.13;8.38;;;;;;;17.43;66.04;99669.91;4994612;28;20035;-64
2021/06/22 03:11:59;;;;;;;15.73;9.00;;;;;;;17.42;66.22;99672.56;5009241;28;20041;-65
2021/06/22 03:14:25;;;;;;;12.23;8.88;;;;;;;17.44;66.20;99681.25;4994509;28;20062;-63
2021/06/22 03:16:53;;;;;;;11.70;8.10;;;;;;;17.41;66.02;99692.66;4994413;28;20513;-63
2021/06/22 03:19:21;;;;;;;13.73;8.55;;;;;;;17.40;66.03;99692.66;4993862;28;20398;-63
2021/06/22 03:21:49;;;;;;;12.30;8.32;;;;;;;17.39;66.03;99710.16;4994402;28;20045;-63
2021/06/22 03:24:17;;;;;;;11.77;8.88;;;;;;;17.39;65.91;99706.66;4992988;28;20458;-64
2021/06/22 03:26:44;;;;;;;11.60;8.00;;;;;;;17.39;65.81;99717.13;4994178;28;20089;-63
2021/06/22 03:29:09;;;;;;;15.82;9.50;;;;;;;17.38;65.83;99708.41;5009188;28;20034;-63
2021/06/22 03:31:36;;;;;;;11.60;8.32;;;;;;;17.35;65.87;99709.34;4994170;28;20375;-63
2021/06/22 03:34:02;;;;;;;15.43;9.93;;;;;;;17.33;65.96;99705.88;4994056;28;20086;-64
2021/06/22 03:36:29;;;;;;;15.25;9.35;;;;;;;17.33;65.78;99705.00;4993865;28;20039;-63
2021/06/22 03:38:55;;;;;;;11.55;8.50;;;;;;;17.32;65.94;99712.00;5009556;28;20567;-63
2021/06/22 03:41:20;;;;;;;12.85;9.23;;;;;;;17.30;65.83;99711.16;4993752;28;20034;-63
2021/06/22 03:43:46;;;;;;;13.45;8.75;;;;;;;17.29;65.97;99711.19;4993961;28;20405;-62
2021/06/22 03:46:19;;;;;;;14.63;8.95;;;;;;;17.29;65.92;99704.19;4993556;28;20045;-63
2021/06/22 03:48:48;;;;;;;13.90;9.10;;;;;;;17.27;65.81;99708.59;4994099;28;20049;-63
2021/06/22 03:51:13;;;;;;;14.27;8.88;;;;;;;17.27;65.38;99708.59;4994053;28;20482;-62
2021/06/22 03:53:42;;;;;;;12.05;7.88;;;;;;;17.26;65.86;99709.47;4993793;28;20041;-63
2021/06/22 03:56:09;;;;;;;14.43;8.38;;;;;;;17.25;65.73;99715.63;4993545;28;20049;-63
2021/06/22 03:58:35;;;;;;;11.30;7.85;;;;;;;17.25;65.91;99717.38;4994037;28;20053;-63
2021/06/22 04:01:02;;;;;;;12.35;7.90;;;;;;;17.23;66.03;99721.78;4993928;28;20038;-63
2021/06/22 04:03:31;;;;;;;14.05;8.43;;;;;;;17.21;65.86;99727.03;4994667;28;20046;-63
2021/06/22 04:05:59;;;;;;;10.10;7.20;;;;;;;17.20;65.77;99727.94;4993728;28;20517;-63
2021/06/22 04:08:25;;;;;;;13.23;7.95;;;;;;;17.20;65.81;99730.56;4993844;28;20045;-63
2021/06/22 04:10:50;;;;;;;14.88;8.15;;;;;;;17.19;65.80;99731.44;4992636;28;20394;-62
2021/06/22 04:13:19;;;;;;;12.55;7.72;;;;;;;17.18;65.89;99732.34;4993789;28;20466;-63
2021/06/22 04:15:46;;;;;;;11.35;6.35;;;;;;;17.18;65.85;99725.31;5008735;28;20035;-62
2021/06/22 04:18:12;;;;;;;12.65;7.25;;;;;;;17.18;65.60;99717.47;5009096;28;20442;-63
2021/06/22 04:20:39;;;;;;;10.30;6.93;;;;;;;17.18;65.73;99719.25;5008994;28;20038;-63
2021/06/22 04:23:06;;;;;;;9.93;6.75;;;;;;;17.17;65.79;99722.75;4993844;28;20034;-63
2021/06/22 04:25:32;;;;;;;9.32;6.57;;;;;;;17.16;65.62;99719.25;5008874;28;20109;-63
2021/06/22 04:28:02;;;;;;;10.32;7.35;;;;;;;17.15;65.72;99714.91;4993575;28;20593;-65
2021/06/22 04:30:30;;;;;;;8.85;6.07;;;;;;;17.17;65.75;99717.50;4993439;28;20034;-63
2021/06/22 04:32:55;;;;;;;11.60;6.30;;;;;;;17.15;65.62;99712.28;4993802;28;20130;-64
2021/06/22 04:35:23;;;;;;;7.97;5.53;;;;;;;17.15;65.55;99698.34;4994560;28;20117;-63
2021/06/22 04:37:49;;;;;;;9.23;6.50;;;;;;;17.16;65.67;99705.31;4996587;28;20034;-63
2021/06/22 04:40:15;;;;;;;10.27;6.10;;;;;;;17.14;65.78;99701.84;5012702;28;20100;-63
2021/06/22 04:42:40;;;;;;;9.40;6.15;;;;;;;17.14;65.75;99707.06;4997293;28;20034;-65
2021/06/22 04:45:09;;;;;;;11.10;6.75;;;;;;;17.13;65.76;99703.56;4996721;28;20124;-63
2021/06/22 04:47:36;;;;;;;9.63;7.07;;;;;;;17.13;65.58;99702.72;5012029;28;20038;-63
2021/06/22 04:50:03;;;;;;;12.02;7.55;;;;;;;17.11;65.80;99713.25;5012910;28;20039;-63
2021/06/22 04:52:31;;;;;;;14.20;8.18;;;;;;;17.10;65.74;99715.88;4996973;28;20177;-63
2021/06/22 04:54:57;;;;;;;13.38;7.90;;;;;;;17.10;65.66;99723.72;4996756;28;20039;-63
2021/06/22 04:57:22;;;;;;;10.32;7.55;;;;;;;17.09;65.67;99724.59;4995540;28;20034;-63
2021/06/22 04:59:50;;;;;;;9.30;6.97;;;;;;;17.09;65.57;99733.34;5012350;28;20533;-62
2021/06/22 05:02:16;;;;;;;12.20;7.63;;;;;;;17.07;65.81;99729.88;4996521;28;20137;-64
2021/06/22 05:04:42;;;;;;;11.13;6.70;;;;;;;17.06;65.70;99730.75;4996884;28;20124;-62
2021/06/22 05:07:07;;;;;;;12.77;7.55;;;;;;;17.03;65.54;99731.69;4996375;28;20490;-64
2021/06/22 05:09:33;;;;;;;10.98;6.82;;;;;;;17.03;65.75;99736.03;4996670;28;20034;-64
2021/06/22 05:11:58;;;;;;;10.65;6.72;;;;;;;17.01;65.87;99733.47;4996730;28;20030;-64
2021/06/22 05:14:29;;;;;;;11.63;6.63;;;;;;;17.00;65.63;99742.19;4996316;28;20045;-64
2021/06/22 05:16:59;;;;;;;9.35;6.68;;;;;;;16.99;65.91;99740.47;4997018;28;20042;-64
2021/06/22 05:19:28;;;;;;;11.77;7.40;;;;;;;16.98;65.79;99740.47;4996666;28;20043;-62
2021/06/22 05:21:53;;;;;;;10.15;6.63;;;;;;;16.97;65.83;99737.00;5011855;28;20046;-64
2021/06/22 05:24:19;;;;;;;10.35;7.03;;;;;;;16.98;65.91;99743.97;4996597;28;20138;-64
2021/06/22 05:26:44;;;;;;;10.40;7.43;;;;;;;16.97;65.76;99746.63;4996427;28;20454;-63
2021/06/22 05:29:11;;;;;;;11.70;8.52;;;;;;;16.96;66.00;99748.38;4995171;28;20042;-64
2021/06/22 05:31:37;;;;;;;14.20;8.07;;;;;;;16.97;65.78;99744.00;4996334;28;20399;-63
2021/06/22 05:34:02;;;;;;;11.73;7.97;;;;;;;16.95;65.73;99744.00;4996116;28;20482;-63
2021/06/22 05:36:28;;;;;;;11.63;9.48;;;;;;;16.94;65.93;99744.88;4996141;28;20461;-63
2021/06/22 05:38:53;;;;;;;15.90;9.63;;;;;;;16.95;65.84;99738.78;4996631;28;20042;-63
2021/06/22 05:41:19;;;;;;;16.70;10.27;;;;;;;16.93;65.87;99745.75;4995852;28;20118;-63
2021/06/22 05:43:52;;;;;;;15.48;10.07;;;;;;;16.94;65.96;99751.88;5011222;28;20042;-63
2021/06/22 05:46:18;;;;;;;12.45;9.95;;;;;;;16.91;65.96;99750.13;4996263;28;20441;-63
2021/06/22 05:48:52;;;;;;;15.05;9.95;;;;;;;16.89;65.75;99747.56;4995932;28;20045;-62
2021/06/22 05:51:17;;;;;;;14.30;9.88;;;;;;;16.86;65.93;99742.38;4996414;28;20042;-63
2021/06/22 05:53:50;;;;;;;12.77;9.75;;;;;;;16.86;65.79;99737.13;4994350;28;20037;-63
2021/06/22 05:56:18;;;;;;;13.02;8.30;;;;;;;16.85;65.90;99737.16;5010610;28;20126;-63
2021/06/22 05:58:44;;;;;;;8.85;7.63;;;;;;;16.85;65.91;99732.78;4994806;28;20470;-64
2021/06/22 06:01:09;;;;;;;11.32;7.63;;;;;;;16.85;65.90;99730.16;4995773;28;20077;-63
2021/06/22 06:03:37;;;;;;;12.85;7.38;;;;;;;16.84;65.70;99722.34;5011021;28;20046;-63
2021/06/22 06:06:04;;;;;;;14.90;8.63;;;;;;;16.84;65.80;99719.72;4995680;28;20141;-63
2021/06/22 06:08:32;;;;;;;13.80;8.02;;;;;;;16.83;66.04;99733.69;4995615;28;20042;-64
2021/06/22 06:11:01;;;;;;;14.70;7.75;;;;;;;16.83;65.81;99741.56;5010658;28;20077;-64
2021/06/22 06:13:35;;;;;;;11.95;7.15;;;;;;;16.81;65.71;99741.59;4995780;28;20485;-63
2021/06/22 06:16:01;;;;;;;13.35;8.52;;;;;;;16.81;65.90;99746.81;4995627;28;20031;-63
2021/06/22 06:18:27;;;;;;;12.43;7.72;;;;;;;16.81;65.80;99748.56;4995461;28;20046;-64
2021/06/22 06:20:57;;;;;;;12.38;7.85;;;;;;;16.78;66.13;99744.25;5010402;28;20457;-63
2021/06/22 06:23:27;;;;;;;14.27;8.02;;;;;;;16.77;66.13;99752.97;4995404;28;20038;-63
2021/06/22 06:25:55;;;;;;;14.88;8.52;;;;;;;16.75;66.00;99754.75;5010475;28;20037;-65
2021/06/22 06:28:33;;;;;;;11.45;7.60;;;;;;;16.73;66.06;99760.00;4995211;28;20043;-64
2021/06/22 06:31:01;;;;;;;17.85;9.32;;;;;;;16.72;66.00;99755.66;5010664;28;20109;-64
2021/06/22 06:33:27;;;;;;;12.10;8.82;;;;;;;16.72;66.22;99755.66;4994891;28;20042;-64
2021/06/22 06:35:58;;;;;;;10.68;8.82;;;;;;;16.71;66.06;99759.16;4995118;28;20501;-64
2021/06/22 06:38:27;;;;;;;11.93;9.43;;;;;;;16.72;66.08;99760.91;4995646;28;20046;-63
2021/06/22 06:40:57;;;;;;;11.68;9.50;;;;;;;16.72;65.93;99768.75;4995044;28;20100;-64
2021/06/22 06:43:26;;;;;;;19.25;10.50;;;;;;;16.70;66.15;99778.38;4994635;28;20177;-64
2021/06/22 06:45:53;;;;;;;11.27;9.35;;;;;;;16.70;65.74;99783.59;4994903;28;20061;-64
2021/06/22 06:48:23;;;;;;;15.32;11.15;;;;;;;16.71;65.94;99774.88;5010068;28;20474;-63
2021/06/22 06:50:49;;;;;;;14.25;10.98;;;;;;;16.71;66.07;99797.53;5010084;28;20034;-63
2021/06/22 06:53:17;;;;;;;15.63;11.30;;;;;;;16.68;66.17;99801.06;5010130;28;20038;-63
2021/06/22 06:55:43;;;;;;;18.73;12.77;;;;;;;16.70;65.93;99801.91;4994820;28;20141;-63
2021/06/22 06:58:12;;;;;;;15.32;10.85;;;;;;;16.70;66.11;99801.03;4993967;28;20501;-63
2021/06/22 07:00:38;;;;;;;16.75;11.32;;;;;;;16.69;66.13;99805.41;4994603;28;20030;-63
2021/06/22 07:03:05;;;;;;;17.48;12.70;;;;;;;16.70;66.09;99803.66;4994696;28;20050;-63
2021/06/22 07:05:31;;;;;;;17.63;12.07;;;;;;;16.67;66.11;99809.78;4994634;28;20034;-63
2021/06/22 07:08:03;;;;;;;15.25;12.45;;;;;;;16.68;66.26;99816.75;4994988;28;20045;-63
2021/06/22 07:10:33;;;;;;;15.00;11.98;;;;;;;16.69;66.33;99817.63;5009996;28;20045;-63
2021/06/22 07:13:04;;;;;;;22.90;13.48;;;;;;;16.67;66.31;99819.38;4994596;28;20042;-64
2021/06/22 07:15:33;;;;;;;16.52;13.27;;;;;;;16.66;66.27;99813.28;5009641;28;20034;-63
2021/06/22 07:18:00;;;;;;;17.48;13.57;;;;;;;16.65;66.14;99803.72;4994737;28;20057;-63
2021/06/22 07:20:29;;;;;;;17.85;14.10;;;;;;;16.65;66.07;99806.31;4994342;28;20485;-63
2021/06/22 07:22:57;;;;;;;18.73;14.05;;;;;;;16.66;66.12;99809.81;4993322;28;20038;-63
2021/06/22 07:25:26;;;;;;;16.85;14.07;;;;;;;16.64;66.21;99815.06;4994347;28;20085;-64
2021/06/22 07:27:55;;;;;;;20.73;14.07;;;;;;;16.63;66.43;99805.47;5009256;28;20494;-63
2021/06/22 07:30:23;;;;;;;25.25;15.48;;;;;;;16.63;66.47;99815.94;4994250;28;20042;-62
2021/06/22 07:32:53;;;;;;;19.38;15.55;;;;;;;16.63;66.39;99815.09;4994643;28;20061;-63
2021/06/22 07:35:24;;;;;;;21.60;14.93;;;;;;;16.61;66.19;99812.47;4994653;28;20037;-63
2021/06/22 07:37:50;;;;;;;23.13;15.75;;;;;;;16.63;66.39;99817.72;5009361;28;20042;-63
2021/06/22 07:40:16;;;;;;;21.77;14.40;;;;;;;16.62;66.42;99811.59;5009478;28;20041;-63
2021/06/22 07:42:44;;;;;;;18.15;14.73;;;;;;;16.62;66.34;99810.75;4994070;28;20042;-63
2021/06/22 07:45:11;;;;;;;17.05;14.43;;;;;;;16.63;66.21;99809.84;4994137;28;20042;-63
2021/06/22 07:47:39;;;;;;;18.35;14.68;;;;;;;16.61;66.37;99815.09;4993904;28;20074;-64
2021/06/22 07:50:09;;;;;;;18.85;14.70;;;;;;;16.62;66.45;99810.75;5008923;28;20066;-63
2021/06/22 07:52:34;;;;;;;18.00;13.48;;;;;;;16.61;66.49;99816.84;5009271;28;20498;-64
2021/06/22 07:55:13;;;;;;;15.75;14.05;;;;;;;16.62;66.32;99814.22;4992747;28;20561;-63
2021/06/22 07:57:51;;;;;;;16.55;14.77;;;;;;;16.60;66.39;99823.81;5008580;28;20121;-64
2021/06/22 08:00:43;;;;;;;20.58;15.50;;;;;;;16.60;66.31;99813.34;4993564;28;20089;-63
2021/06/22 08:03:16;;;;;;;19.52;14.18;;;;;;;16.59;66.45;99804.66;5008775;28;20050;-63
2021/06/22 08:05:43;;;;;;;73.00;43.30;;;;;;;16.60;66.62;99813.34;4994028;28;20034;-63
2021/06/22 08:08:15;;;;;;;258.42;152.77;;;;;;;16.59;66.24;99820.34;5009324;28;20118;-71
2021/06/22 08:10:54;;;;;;;1999.90;993.03;;;;;;;16.56;66.32;99811.69;4997607;28;20569;-72
2021/06/22 08:13:26;;;;;;;1999.90;993.22;;;;;;;16.52;66.40;99810.00;4996975;28;20055;-72
2021/06/22 08:15:56;;;;;;;1832.07;843.08;;;;;;;16.51;66.48;99813.47;4997195;28;20035;-72
2021/06/22 08:18:28;;;;;;;549.92;315.50;;;;;;;16.46;66.32;99810.94;4996412;28;20038;-71
2021/06/22 08:20:59;;;;;;;278.13;150.77;;;;;;;16.43;66.45;99806.59;4997931;28;20097;-72
2021/06/22 08:23:29;;;;;;;140.00;82.90;;;;;;;16.43;66.18;99803.13;4997900;28;20034;-72
2021/06/22 08:25:55;;;;;;;70.63;44.95;;;;;;;16.44;66.47;99803.09;4997480;28;20046;-72
2021/06/22 08:28:26;;;;;;;44.85;32.08;;;;;;;16.43;66.34;99803.97;4997225;28;20033;-72
2021/06/22 08:30:54;;;;;;;30.73;22.73;;;;;;;16.44;66.34;99810.94;4997490;28;20042;-72
2021/06/22 08:33:23;;;;;;;21.83;18.92;;;;;;;16.46;66.37;99816.16;4996291;28;20461;-72
2021/06/22 08:35:53;;;;;;;24.40;17.60;;;;;;;16.54;66.31;99808.22;4997416;28;20048;-72
2021/06/22 08:38:18;;;;;;;24.17;17.85;;;;;;;16.59;66.54;99806.38;4997345;28;20035;-72
2021/06/22 08:40:46;;;;;;;34.75;17.80;;;;;;;16.66;66.64;99813.28;4997249;28;20049;-72
2021/06/22 08:43:14;;;;;;;59.33;25.05;;;;;;;16.71;66.29;99808.88;4996660;28;20111;-71
2021/06/22 08:45:44;;;;;;;83.25;35.55;;;;;;;16.73;66.29;99817.56;5012369;28;20084;-71
2021/06/22 08:48:23;;;;;;;68.03;31.02;;;;;;;16.81;66.16;99821.81;5011938;28;20038;-71
2021/06/22 08:50:58;;;;;;;43.78;24.45;;;;;;;16.84;66.13;99825.25;4997192;28;20035;-71
2021/06/22 08:53:34;;;;;;;59.97;40.92;;;;;;;16.92;66.11;99829.53;4997154;28;20038;-73
2021/06/22 08:56:02;;;;;;;37.45;23.13;;;;;;;16.95;65.87;99832.16;4997002;28;20049;-72
2021/06/22 08:58:38;;;;;;;27.60;18.70;;;;;;;16.97;65.78;99836.47;4996608;28;20030;-72
2021/06/22 09:01:12;;;;;;;29.85;19.17;;;;;;;16.98;65.94;99843.44;4997182;28;20042;-73
2021/06/22 09:03:45;;;;;;;35.78;20.00;;;;;;;16.99;65.89;99850.41;5012146;28;20038;-72
2021/06/22 09:06:23;;;;;;;26.13;19.98;;;;;;;16.99;65.74;99852.16;4996845;28;20402;-71
2021/06/22 09:08:55;;;;;;;25.58;19.67;;;;;;;16.99;65.74;99857.38;4997059;28;20092;-73
2021/06/22 09:11:29;;;;;;;40.40;21.45;;;;;;;17.01;65.65;99856.50;4995830;28;20050;-74
2021/06/22 09:14:10;;;;;;;26.00;17.90;;;;;;;17.00;65.91;99852.16;4995523;28;20057;-74
2021/06/22 09:17:01;;;;;;;20.70;18.45;;;;;;;17.04;65.94;99845.09;4996717;28;20042;-74
2021/06/22 09:19:33;;;;;;;20.27;16.27;;;;;;;17.08;65.85;99851.16;4996137;28;20090;-73
2021/06/22 09:22:27;;;;;;;120.70;67.90;;;;;;;17.12;65.98;99853.75;4995954;28;20189;-73
2021/06/22 09:25:08;;;;;;;60.85;35.20;;;;;;;17.16;65.81;99852.78;4996625;28;20037;-73
2021/06/22 09:28:05;;;;;;;29.73;19.33;;;;;;;17.20;65.86;99853.63;5011911;28;20049;-73
2021/06/22 09:30:39;;;;;;;75.65;42.30;;;;;;;17.21;65.58;99852.72;4984439;28;20100;-74
2021/06/22 09:33:29;;;;;;;60.35;33.47;;;;;;;17.21;65.72;99855.31;4996353;28;20038;-73
2021/06/22 09:36:07;;;;;;;60.28;26.75;;;;;;;17.21;65.68;99855.31;5011724;28;20030;-73
2021/06/22 09:38:38;;;;;;;32.85;18.98;;;;;;;17.22;65.71;99849.22;4996565;28;20034;-72
2021/06/22 09:41:18;;;;;;;33.05;17.45;;;;;;;17.25;65.68;99850.94;4996077;28;20036;-73
2021/06/22 09:43:48;;;;;;;35.28;16.48;;;;;;;17.22;65.90;99849.22;5011379;28;20434;-73
2021/06/22 09:46:16;;;;;;;19.58;13.75;;;;;;;17.18;65.62;99844.94;4995935;28;20038;-70
2021/06/22 09:48:52;;;;;;;20.85;14.90;;;;;;;17.15;65.57;99847.59;5011380;28;20050;-72
2021/06/22 09:51:18;;;;;;;20.52;16.02;;;;;;;17.09;65.72;99845.91;5011528;28;20093;-71
2021/06/22 09:53:44;;;;;;;20.83;14.95;;;;;;;17.08;65.59;99845.91;5010751;28;20121;-73
2021/06/22 09:56:25;;;;;;;18.65;15.57;;;;;;;17.06;65.56;99832.88;4995551;28;20113;-73
2021/06/22 09:58:51;;;;;;;43.80;30.23;;;;;;;17.03;65.73;99822.44;4994903;28;20406;-73
2021/06/22 10:01:27;;;;;;;179.48;105.75;;;;;;;17.01;65.75;99834.66;4995637;28;20486;-73
2021/06/22 10:03:54;;;;;;;104.00;60.17;;;;;;;16.98;65.71;99835.59;4995605;28;20065;-72
2021/06/22 10:06:20;;;;;;;62.78;38.15;;;;;;;17.02;65.76;99834.66;4994947;28;20046;-64
2021/06/22 10:08:50;;;;;;;90.07;50.20;;;;;;;17.09;65.79;99843.31;5010649;28;20472;-64
2021/06/22 10:11:41;;;;;;;77.43;45.47;;;;;;;17.21;65.64;99842.25;5010416;28;20031;-64
2021/06/22 10:14:23;;;;;;;68.93;42.00;;;;;;;17.30;65.57;99844.75;4995720;28;20045;-65
2021/06/22 10:16:48;;;;;;;64.97;38.53;;;;;;;17.38;65.56;99848.97;4995780;28;20057;-64
2021/06/22 10:19:14;;;;;;;152.63;104.30;;;;;;;17.42;65.29;99854.19;5010915;28;20041;-63
2021/06/22 10:21:40;;;;;;;74.63;48.83;;;;;;;17.47;65.49;99859.34;4994133;28;20038;-65
2021/06/22 10:24:05;;;;;;;78.00;49.97;;;;;;;17.50;65.47;99862.75;4995408;28;20125;-64
2021/06/22 10:26:32;;;;;;;78.95;53.00;;;;;;;17.55;65.46;99853.97;5010451;28;20397;-63
2021/06/22 10:28:59;;;;;;;66.75;45.55;;;;;;;17.57;65.32;99855.66;5010360;28;20042;-64
2021/06/22 10:31:26;;;;;;;62.50;41.70;;;;;;;17.60;65.41;99858.25;5010089;28;20042;-64
2021/06/22 10:33:56;;;;;;;53.75;36.63;;;;;;;17.62;65.33;99850.34;4992804;28;20154;-63
2021/06/22 10:36:27;;;;;;;54.17;35.47;;;;;;;17.62;65.30;99847.72;4993660;28;20037;-63
2021/06/22 10:39:01;;;;;;;48.85;32.08;;;;;;;17.64;65.13;99859.06;4993999;28;20073;-64
2021/06/22 10:41:34;;;;;;;46.95;28.42;;;;;;;17.65;65.28;99853.81;4994040;28;20035;-65
2021/06/22 10:44:00;;;;;;;37.00;26.27;;;;;;;17.67;65.29;99858.16;4995225;28;20077;-66
2021/06/22 10:46:26;;;;;;;34.88;24.50;;;;;;;17.68;65.24;99859.88;4995044;28;20085;-65
2021/06/22 10:48:54;;;;;;;36.10;24.48;;;;;;;17.69;65.19;99866.84;4994689;28;20030;-64
2021/06/22 10:51:46;;;;;;;34.30;21.55;;;;;;;17.69;65.04;99872.06;4994660;28;20049;-65
2021/06/22 10:54:49;;;;;;;31.23;19.80;;;;;;;17.69;65.08;99861.59;4994833;28;20034;-65
2021/06/22 10:57:17;;;;;;;31.70;19.65;;;;;;;17.70;65.18;99868.56;4994613;28;20045;-65
2021/06/22 10:59:59;;;;;;;29.60;17.42;;;;;;;17.69;65.28;99872.97;4994889;28;20036;-64
2021/06/22 11:02:56;;;;;;;22.20;16.70;;;;;;;17.69;64.99;99872.97;5009790;28;20093;-65
2021/06/22 11:05:21;;;;;;;27.55;16.88;;;;;;;17.70;65.19;99874.69;4994299;28;20069;-65
2021/06/22 11:08:10;;;;;;;22.30;15.00;;;;;;;17.70;64.93;99871.19;4994386;28;20074;-65
2021/06/22 11:11:00;;;;;;;21.40;15.02;;;;;;;17.71;64.97;99880.78;4994601;28;20048;-64
2021/06/22 11:13:32;;;;;;;18.02;13.98;;;;;;;17.70;64.99;99876.44;4994384;28;20069;-64
2021/06/22 11:16:01;;;;;;;20.30;13.07;;;;;;;17.71;65.07;99867.69;4994003;28;20042;-64
2021/06/22 11:18:27;;;;;;;20.48;13.77;;;;;;;17.71;65.11;99872.94;5009641;28;20045;-64
2021/06/22 11:21:04;;;;;;;15.13;12.57;;;;;;;17.70;64.90;99874.69;4994609;28;20394;-65
2021/06/22 11:23:50;;;;;;;16.67;12.60;;;;;;;17.70;64.75;99872.06;5009507;28;20034;-65
2021/06/22 11:26:19;;;;;;;17.33;11.05;;;;;;;17.70;64.92;99869.44;4993049;28;20039;-64
2021/06/22 11:28:59;;;;;;;15.02;12.18;;;;;;;17.70;64.92;99871.19;4993792;28;20644;-65
2021/06/22 11:31:35;;;;;;;14.65;10.98;;;;;;;17.69;65.06;99867.72;4994305;28;20034;-64
2021/06/22 11:34:13;;;;;;;14.38;10.60;;;;;;;17.70;64.80;99860.72;5009200;28;20042;-65